Time;durP1;ratioP1;P1;durP2;ratioP2;P2;SDS_P1;SDS_P2;PMS_P1;PMS_P2;Temp;Humidity;BMP_temperature;BMP_pressure;BME280_temperature;BME280_humidity;BME280_pressure;Samples;Min_cycle;Max_cycle;Signal;HPM_P1;HPM_P2
2022/12/05 00:01:39;;;;;;;28.92;14.55;;;;;;;7.46;91.45;99650.63;4227508;82;28467;-79
2022/12/05 00:07:41;;;;;;;32.03;15.28;;;;;;;7.89;88.57;99650.95;4252271;82;28483;-79
2022/12/05 00:13:43;;;;;;;27.42;13.50;;;;;;;7.95;86.06;99652.86;4201598;82;28577;-80
2022/12/05 00:19:45;;;;;;;32.53;15.48;;;;;;;6.83;89.62;99650.83;4251042;81;28531;-81
2022/12/05 00:25:46;;;;;;;31.52;15.48;;;;;;;6.70;93.21;99635.49;4233176;82;28510;-80
2022/12/05 00:31:47;;;;;;;33.45;15.60;;;;;;;6.87;90.93;99634.41;4228447;82;28559;-81
2022/12/05 00:37:48;;;;;;;35.78;15.63;;;;;;;6.60;93.27;99625.63;4242536;82;28517;-81
2022/12/05 00:43:51;;;;;;;34.45;15.30;;;;;;;6.89;91.66;99623.84;4266191;82;28502;-82
2022/12/05 00:49:52;;;;;;;34.43;16.37;;;;;;;6.40;92.99;99623.61;4261725;82;28491;-80
2022/12/05 00:55:53;;;;;;;31.57;14.83;;;;;;;6.49;94.14;99620.80;4270824;82;28515;-80
2022/12/05 01:01:55;;;;;;;30.27;14.45;;;;;;;6.17;95.24;99623.76;4268897;82;28527;-80
2022/12/05 01:07:56;;;;;;;29.15;14.23;;;;;;;6.19;95.92;99602.19;4255743;82;28503;-79
2022/12/05 01:13:58;;;;;;;31.77;14.55;;;;;;;6.60;95.42;99597.58;4224764;82;28472;-80
2022/12/05 01:19:59;;;;;;;28.20;13.35;;;;;;;6.45;94.53;99592.82;4254325;82;28524;-79
2022/12/05 01:26:05;;;;;;;27.50;13.35;;;;;;;6.69;94.47;99591.09;4252658;84;28459;-79
2022/12/05 01:32:07;;;;;;;28.60;13.53;;;;;;;7.54;90.01;99585.42;4231996;82;28467;-78
2022/12/05 01:38:11;;;;;;;24.92;11.50;;;;;;;6.52;94.05;99579.84;4249949;83;28534;-78
2022/12/05 01:44:18;;;;;;;25.40;11.55;;;;;;;6.75;93.93;99574.79;4253211;82;28533;-78
2022/12/05 01:50:20;;;;;;;24.25;12.10;;;;;;;6.90;91.60;99585.40;4253384;83;28505;-79
2022/12/05 01:56:21;;;;;;;22.98;10.63;;;;;;;7.33;89.42;99580.47;4254413;83;28479;-79
2022/12/05 02:02:23;;;;;;;19.07;9.55;;;;;;;7.07;88.87;99586.46;4267176;82;28523;-79
2022/12/05 02:08:27;;;;;;;22.80;10.25;;;;;;;7.06;89.10;99587.48;4258684;82;28530;-82
2022/12/05 02:14:46;;;;;;;23.10;10.95;;;;;;;7.02;90.49;99582.19;4273112;82;28519;-81
2022/12/05 02:21:29;;;;;;;27.07;11.68;;;;;;;6.71;91.77;99580.22;4246397;81;28529;-82
2022/12/05 02:27:59;;;;;;;24.18;11.70;;;;;;;6.71;91.92;99577.55;4258722;82;28553;-80
2022/12/05 02:34:24;;;;;;;25.55;11.15;;;;;;;6.58;93.13;99570.75;4242787;82;28537;-82
2022/12/05 02:40:40;;;;;;;27.17;11.20;;;;;;;6.54;93.90;99563.09;4213375;82;28632;-80
2022/12/05 02:46:45;;;;;;;;;;;;;;;6.40;95.58;99565.34;4252696;82;28503;-81
2022/12/05 02:52:50;;;;;;;21.62;10.53;;;;;;;6.18;96.07;99566.67;4241828;82;20178;-80
2022/12/05 02:58:54;;;;;;;25.45;11.78;;;;;;;6.56;94.78;99566.93;4245495;82;28546;-80
2022/12/05 03:05:00;;;;;;;21.23;10.48;;;;;;;7.28;91.68;99574.86;4256308;82;28514;-80
2022/12/05 03:11:02;;;;;;;25.97;11.38;;;;;;;7.08;90.50;99570.73;4235306;82;28518;-79
2022/12/05 03:17:09;;;;;;;22.30;10.43;;;;;;;6.17;95.56;99566.35;4192613;82;28507;-81
2022/12/05 03:23:22;;;;;;;23.52;11.35;;;;;;;6.29;94.95;99572.00;4212800;82;28491;-79
2022/12/05 03:29:41;;;;;;;22.02;9.80;;;;;;;6.26;96.48;99563.05;4216633;82;28496;-77
2022/12/05 03:36:13;;;;;;;23.32;10.88;;;;;;;6.35;95.15;99569.08;4239365;82;28487;-76
2022/12/05 03:42:19;;;;;;;25.35;10.85;;;;;;;6.16;97.07;99558.03;4089942;85;28515;-77
2022/12/05 03:48:26;;;;;;;23.62;11.22;;;;;;;6.22;97.96;99559.11;4186800;82;28472;-77
2022/12/05 03:54:38;;;;;;;25.12;11.95;;;;;;;6.64;96.03;99573.48;4221294;82;28558;-77
2022/12/05 04:00:44;;;;;;;24.70;11.30;;;;;;;7.20;93.72;99571.03;4189002;82;28526;-77
2022/12/05 04:06:49;;;;;;;25.20;11.65;;;;;;;7.47;90.77;99591.23;4234242;82;28546;-77
2022/12/05 04:12:53;;;;;;;23.32;11.48;;;;;;;7.76;89.08;99595.52;4247269;82;28523;-77
2022/12/05 04:19:03;;;;;;;22.37;11.00;;;;;;;7.51;89.25;99594.66;4254859;82;28534;-77
2022/12/05 04:31:38;;;;;;;22.55;10.65;;;;;;;7.35;92.57;99578.94;4215028;82;28539;-76
2022/12/05 04:37:43;;;;;;;23.35;11.33;;;;;;;7.37;90.70;99574.22;4199530;82;28603;-77
2022/12/05 04:43:47;;;;;;;24.02;11.15;;;;;;;7.02;94.06;99588.87;4217266;82;28560;-76
2022/12/05 04:49:50;;;;;;;23.77;11.57;;;;;;;7.80;89.70;99581.20;4249231;81;28568;-76
2022/12/05 04:55:55;;;;;;;21.17;9.90;;;;;;;7.29;91.34;99578.38;4195194;82;28483;-77
2022/12/05 05:02:02;;;;;;;26.45;12.00;;;;;;;7.34;91.07;99567.41;4218445;82;28530;-76
2022/12/05 05:08:04;;;;;;;25.92;12.85;;;;;;;7.54;91.16;99551.97;4201337;83;28574;-76
2022/12/05 05:14:06;;;;;;;23.50;11.25;;;;;;;7.02;93.23;99547.44;4239215;82;28518;-76
2022/12/05 05:20:23;;;;;;;26.77;12.40;;;;;;;7.53;91.24;99543.10;4231435;82;28545;-76
2022/12/05 05:26:27;;;;;;;29.18;12.05;;;;;;;7.20;92.28;99537.59;4221896;82;28531;-75
2022/12/05 05:32:34;;;;;;;30.80;13.65;;;;;;;7.26;92.70;99535.45;4267425;82;28545;-78
2022/12/05 05:38:42;;;;;;;29.30;13.08;;;;;;;6.70;95.36;99537.14;4240906;82;28527;-78
2022/12/05 05:44:44;;;;;;;34.30;14.03;;;;;;;6.41;97.08;99534.45;4191117;82;28565;-78
2022/12/05 05:50:45;;;;;;;38.75;14.80;;;;;;;6.81;96.45;99535.28;4211890;82;28467;-78
2022/12/05 05:56:46;;;;;;;29.92;13.38;;;;;;;7.21;94.85;99533.90;4209986;82;28556;-78
2022/12/05 06:02:48;;;;;;;36.35;14.70;;;;;;;6.92;94.99;99547.27;4264275;81;28553;-79
2022/12/05 06:08:49;;;;;;;33.08;13.98;;;;;;;6.48;97.21;99548.35;4216445;82;28527;-78
2022/12/05 06:14:51;;;;;;;29.20;12.20;;;;;;;6.76;96.43;99544.37;4255797;82;28618;-79
2022/12/05 06:20:55;;;;;;;33.25;14.20;;;;;;;6.40;97.76;99553.33;4243814;82;28975;-82
2022/12/05 06:26:56;;;;;;;29.42;13.70;;;;;;;6.67;99.76;99549.56;4222282;82;28580;-84
2022/12/05 06:32:57;;;;;;;32.93;13.05;;;;;;;6.25;99.00;99552.89;4232239;82;28525;-83
2022/12/05 06:38:59;;;;;;;30.92;12.95;;;;;;;6.44;100.00;99553.77;4198220;82;28535;-81
2022/12/05 06:45:01;;;;;;;30.05;13.72;;;;;;;7.11;95.83;99554.29;4246640;82;28547;-86
2022/12/05 06:51:05;;;;;;;30.05;12.37;;;;;;;7.14;94.70;99555.26;4244459;82;28535;-85
2022/12/05 06:57:08;;;;;;;33.30;13.78;;;;;;;7.03;94.99;99561.12;4217599;82;28548;-85
2022/12/05 07:03:10;;;;;;;31.30;13.18;;;;;;;6.74;97.47;99561.64;4237499;82;28515;-85
2022/12/05 07:09:12;;;;;;;30.27;13.50;;;;;;;6.33;98.58;99564.44;4229133;84;28543;-82
2022/12/05 07:15:13;;;;;;;31.57;13.53;;;;;;;6.70;98.22;99559.33;4242444;82;28596;-85
2022/12/05 07:21:15;;;;;;;31.15;13.08;;;;;;;6.53;97.84;99564.13;4249834;82;28520;-84
2022/12/05 07:27:17;;;;;;;31.25;13.05;;;;;;;6.98;95.02;99555.86;4299822;82;28513;-85
2022/12/05 07:33:18;;;;;;;29.90;13.05;;;;;;;6.10;100.00;99560.11;4240161;82;28568;-84
2022/12/05 07:39:19;;;;;;;33.05;15.25;;;;;;;6.97;96.70;99558.22;4289500;82;28537;-84
2022/12/05 07:45:21;;;;;;;31.52;13.25;;;;;;;6.57;98.84;99553.88;4244625;82;28528;-82
2022/12/05 07:51:22;;;;;;;30.48;13.45;;;;;;;6.61;99.16;99548.98;4195261;84;28521;-84
2022/12/05 07:57:24;;;;;;;31.23;13.22;;;;;;;6.57;97.65;99556.55;4270581;82;28510;-86
2022/12/05 08:03:25;;;;;;;32.28;14.60;;;;;;;6.73;99.09;99550.11;4253213;83;28513;-85
2022/12/05 08:09:27;;;;;;;33.55;14.23;;;;;;;7.13;97.75;99548.75;4253227;82;28522;-85
2022/12/05 08:15:28;;;;;;;33.80;13.20;;;;;;;7.02;96.03;99549.61;4267282;82;28513;-83
2022/12/05 08:21:30;;;;;;;30.97;12.85;;;;;;;6.73;97.10;99549.30;4246404;82;28532;-83
2022/12/05 08:27:31;;;;;;;29.05;13.70;;;;;;;7.22;94.16;99549.73;4251700;84;28526;-82
2022/12/05 08:33:33;;;;;;;29.80;13.45;;;;;;;6.72;96.69;99561.82;4226397;82;28460;-85
2022/12/05 08:39:35;;;;;;;28.25;13.45;;;;;;;7.52;94.16;99548.67;4234137;82;28513;-84
2022/12/05 08:45:36;;;;;;;33.90;14.25;;;;;;;7.07;92.55;99564.55;4251861;82;28489;-85
2022/12/05 08:51:40;;;;;;;32.40;14.28;;;;;;;6.98;94.20;99564.41;4247297;82;28565;-84
2022/12/05 08:57:42;;;;;;;31.93;14.47;;;;;;;7.30;93.62;99571.50;4252931;82;28490;-84
2022/12/05 09:03:47;;;;;;;26.12;13.15;;;;;;;6.90;94.39;99574.70;4234859;82;28580;-84
2022/12/05 09:09:49;;;;;;;29.10;14.50;;;;;;;8.06;89.78;99553.70;4237532;82;28503;-84
2022/12/05 09:15:50;;;;;;;32.03;14.73;;;;;;;8.63;87.03;99557.44;4254812;82;28471;-85
2022/12/05 09:21:52;;;;;;;26.77;12.43;;;;;;;8.09;87.12;99547.95;4248050;82;28548;-83
2022/12/05 09:27:53;;;;;;;31.17;14.98;;;;;;;8.39;83.78;99552.13;4230888;82;28574;-83
2022/12/05 09:33:57;;;;;;;29.42;14.33;;;;;;;8.84;82.09;99539.50;4248457;82;28572;-84
2022/12/05 09:40:00;;;;;;;30.82;15.25;;;;;;;9.15;81.32;99528.63;4221114;84;28499;-84
2022/12/05 09:46:25;;;;;;;28.57;14.85;;;;;;;9.13;79.46;99532.04;4206889;84;28495;-84
2022/12/05 09:52:36;;;;;;;31.65;15.40;;;;;;;8.78;81.09;99527.75;4269456;82;28515;-84
2022/12/05 09:58:55;;;;;;;29.27;14.60;;;;;;;9.11;82.91;99515.84;4245206;82;28581;-83
2022/12/05 10:05:05;;;;;;;30.20;14.40;;;;;;;10.01;76.91;99508.35;4246065;82;28507;-84
2022/12/05 10:11:36;;;;;;;33.50;15.40;;;;;;;9.18;75.89;99509.42;4234493;82;28526;-84
2022/12/05 10:17:46;;;;;;;28.32;14.30;;;;;;;9.82;78.05;99491.32;4245870;81;28542;-83
2022/12/05 10:24:01;;;;;;;26.95;13.78;;;;;;;10.08;74.45;99504.28;4196464;83;28505;-83
2022/12/05 10:30:20;;;;;;;34.70;17.37;;;;;;;9.26;75.59;99492.80;4133932;85;28506;-83
2022/12/05 10:36:24;;;;;;;36.38;18.15;;;;;;;9.74;76.06;99490.22;4161539;83;28497;-84
2022/12/05 10:42:33;;;;;;;39.08;18.70;;;;;;;10.43;75.36;99474.31;4211582;83;28553;-84
2022/12/05 10:48:38;;;;;;;37.90;19.77;;;;;;;10.74;71.24;99459.14;4198366;82;28531;-84
2022/12/05 10:54:50;;;;;;;35.17;17.85;;;;;;;10.13;71.82;99470.05;4181030;85;28542;-83
2022/12/05 11:01:07;;;;;;;34.98;18.77;;;;;;;10.53;71.03;99456.86;4165868;85;28507;-83
2022/12/05 11:07:23;;;;;;;37.38;18.27;;;;;;;10.37;73.33;99447.45;4157031;83;28552;-84
2022/12/05 11:13:25;;;;;;;38.38;18.07;;;;;;;10.43;73.37;99446.59;4168639;83;28550;-84
2022/12/05 11:19:34;;;;;;;39.70;18.42;;;;;;;10.49;73.71;99435.48;4175906;83;28595;-83
2022/12/05 11:25:36;;;;;;;40.67;18.70;;;;;;;10.66;72.61;99446.48;4184625;83;28509;-83
2022/12/05 11:31:37;;;;;;;43.80;19.02;;;;;;;10.45;74.60;99435.92;4199576;83;28570;-83
2022/12/05 11:37:58;;;;;;;40.70;18.05;;;;;;;10.60;73.26;99422.14;4171674;85;28474;-82
2022/12/05 11:44:25;;;;;;;36.93;17.55;;;;;;;10.78;72.75;99422.38;4168177;83;28534;-83
2022/12/05 11:51:18;;;;;;;34.73;17.05;;;;;;;9.83;78.27;99427.67;4177355;85;28491;-83
2022/12/05 11:57:52;;;;;;;27.10;14.20;;;;;;;9.90;79.98;99403.78;4180753;83;28561;-84
2022/12/05 12:04:30;;;;;;;29.37;14.98;;;;;;;9.93;80.06;99409.22;4197478;85;28515;-84
2022/12/05 12:10:51;;;;;;;28.75;14.03;;;;;;;10.12;79.91;99399.38;4196066;83;28550;-83
2022/12/05 12:17:07;;;;;;;29.10;15.35;;;;;;;10.40;77.07;99392.71;4199089;85;28533;-84
2022/12/05 12:23:19;;;;;;;;;;;;;;;10.82;76.40;99371.13;4227240;82;28522;-82
2022/12/05 12:29:56;;;;;;;27.15;14.18;;;;;;;10.96;74.53;99384.73;4145638;86;20331;-82
2022/12/05 12:36:39;;;;;;;25.08;12.98;;;;;;;10.80;76.66;99378.59;4109087;84;28550;-83
2022/12/05 12:43:09;;;;;;;28.47;14.35;;;;;;;10.56;76.19;99372.53;4137912;86;28515;-82
2022/12/05 12:49:56;;;;;;;27.20;14.55;;;;;;;10.67;77.53;99371.48;4100136;84;28526;-83
2022/12/05 13:09:23;;;;;;;25.37;13.53;;;;;;;11.07;75.76;99364.84;3804182;89;28510;-83
2022/12/05 13:15:36;;;;;;;22.70;12.35;;;;;;;11.59;74.44;99361.64;3923974;89;28509;-83
2022/12/05 13:21:38;;;;;;;23.10;12.88;;;;;;;10.83;75.70;99362.00;3913022;89;28615;-83
2022/12/05 13:27:41;;;;;;;25.65;13.18;;;;;;;11.06;77.03;99363.20;3897909;90;28633;-82
2022/12/05 13:33:47;;;;;;;22.95;12.18;;;;;;;11.23;76.16;99354.78;3912371;89;28563;-82
2022/12/05 13:46:20;;;;;;;22.35;12.78;;;;;;;11.33;74.53;99347.52;4148996;82;28476;-83
2022/12/05 13:52:26;;;;;;;27.42;13.40;;;;;;;11.55;74.40;99356.43;4259546;82;28570;-83
2022/12/05 13:58:54;;;;;;;27.10;13.13;;;;;;;11.15;77.60;99349.73;4274847;81;28511;-83
2022/12/05 14:04:55;;;;;;;24.87;12.20;;;;;;;11.34;76.37;99346.98;4257772;82;28562;-83
2022/12/05 14:11:04;;;;;;;23.42;12.93;;;;;;;11.53;75.83;99356.64;4257565;81;28485;-83
2022/12/05 14:17:07;;;;;;;23.73;12.82;;;;;;;11.20;78.24;99359.83;4264887;82;28584;-83
2022/12/05 14:23:37;;;;;;;23.42;12.85;;;;;;;11.70;75.53;99352.77;4218096;82;28472;-83
2022/12/05 14:29:53;;;;;;;25.05;13.62;;;;;;;12.04;73.75;99356.31;4213110;84;28506;-83
2022/12/05 14:35:56;;;;;;;26.00;13.60;;;;;;;11.79;74.11;99361.36;4215293;84;28519;-83
2022/12/05 14:42:05;;;;;;;24.50;14.28;;;;;;;11.85;74.52;99360.41;4217251;83;28531;-83
2022/12/05 14:48:18;;;;;;;21.35;12.40;;;;;;;12.24;72.58;99362.73;4196857;82;28567;-83
2022/12/05 14:54:22;;;;;;;23.12;13.38;;;;;;;12.40;72.20;99373.85;4197015;84;28499;-83
2022/12/05 15:00:23;;;;;;;23.30;11.68;;;;;;;12.40;71.69;99365.25;4184169;84;28510;-83
2022/12/05 15:06:25;;;;;;;24.80;13.40;;;;;;;12.29;71.55;99367.42;4153306;83;28537;-83
2022/12/05 15:12:47;;;;;;;26.82;14.10;;;;;;;12.27;72.33;99377.08;4193671;83;28538;-82
2022/12/05 15:18:55;;;;;;;23.30;12.78;;;;;;;12.03;72.89;99370.84;4219956;83;28557;-83
2022/12/05 15:24:57;;;;;;;40.35;20.75;;;;;;;12.09;73.74;99360.49;4148698;83;28536;-83
2022/12/05 15:30:59;;;;;;;24.23;13.55;;;;;;;12.03;74.14;99347.94;4160367;84;28488;-84
2022/12/05 15:37:09;;;;;;;25.45;13.40;;;;;;;11.91;74.40;99351.92;4162006;84;28488;-83
2022/12/05 15:43:35;;;;;;;25.80;14.13;;;;;;;11.96;74.38;99347.19;4142450;84;28593;-83
2022/12/05 15:49:36;;;;;;;24.25;14.35;;;;;;;11.93;74.94;99365.17;4180005;83;28479;-83
2022/12/05 15:55:49;;;;;;;35.08;18.42;;;;;;;11.87;74.56;99365.58;4217047;84;28606;-83
2022/12/05 16:02:02;;;;;;;39.05;20.90;;;;;;;12.08;73.35;99357.51;4217997;83;28549;-82
2022/12/05 16:08:05;;;;;;;54.10;26.02;;;;;;;11.71;73.18;99361.17;4232958;83;28521;-83
2022/12/05 16:14:07;;;;;;;55.23;26.80;;;;;;;11.56;73.96;99358.91;4235041;83;28446;-83
2022/12/05 16:20:20;;;;;;;52.15;27.75;;;;;;;11.43;74.34;99360.42;4214055;83;28530;-83
2022/12/05 16:26:26;;;;;;;59.13;28.07;;;;;;;11.14;74.56;99358.32;4283236;81;28509;-80
2022/12/05 16:32:28;;;;;;;56.13;27.87;;;;;;;10.84;75.93;99353.72;4251763;82;28484;-80
2022/12/05 16:38:29;;;;;;;55.95;27.80;;;;;;;10.57;78.31;99355.89;4293185;81;28522;-81
2022/12/05 16:45:02;;;;;;;54.88;27.20;;;;;;;10.55;77.27;99353.95;4294076;81;28528;-87
2022/12/05 16:51:20;;;;;;;56.53;28.30;;;;;;;10.21;78.62;99363.64;4196375;82;28530;-78
2022/12/05 16:57:22;;;;;;;56.02;28.50;;;;;;;10.37;78.74;99357.42;4293743;81;28469;-85
2022/12/05 17:03:23;;;;;;;55.28;27.17;;;;;;;10.31;79.27;99351.87;4256043;82;28499;-81
2022/12/05 17:09:25;;;;;;;57.65;27.45;;;;;;;10.17;80.40;99356.55;4245877;82;28538;-77
2022/12/05 17:15:28;;;;;;;63.78;29.30;;;;;;;9.86;81.23;99355.56;4264735;82;28562;-77
2022/12/05 17:21:32;;;;;;;59.03;27.80;;;;;;;10.08;81.39;99352.48;4281913;82;28544;-77
2022/12/05 17:27:33;;;;;;;55.25;27.02;;;;;;;10.10;82.03;99344.22;4209599;83;28499;-82
2022/12/05 17:33:35;;;;;;;56.15;26.80;;;;;;;10.13;79.86;99348.63;4221422;83;28590;-82
2022/12/05 17:39:38;;;;;;;58.33;27.30;;;;;;;10.14;78.46;99342.72;4256054;83;28593;-81
2022/12/05 17:45:41;;;;;;;51.10;25.12;;;;;;;10.15;79.48;99357.29;4213257;83;28554;-80
2022/12/05 17:51:42;;;;;;;55.83;27.15;;;;;;;10.13;78.15;99356.70;4228334;83;28515;-82
2022/12/05 17:57:45;;;;;;;63.78;29.82;;;;;;;10.11;78.63;99355.27;4220093;83;28548;-81
2022/12/05 18:03:48;;;;;;;62.85;30.88;;;;;;;10.27;79.48;99363.28;4196455;83;28484;-81
2022/12/05 18:09:51;;;;;;;57.35;27.58;;;;;;;10.29;79.96;99368.75;4227924;83;28525;-80
2022/12/05 18:15:57;;;;;;;57.17;27.98;;;;;;;10.27;80.17;99370.84;4239224;82;28506;-80
2022/12/05 18:21:59;;;;;;;55.75;27.80;;;;;;;10.30;79.55;99365.52;4227756;82;28569;-80
2022/12/05 18:28:00;;;;;;;53.13;27.22;;;;;;;10.45;78.82;99367.38;4280895;81;28527;-81
2022/12/05 18:34:02;;;;;;;59.00;28.87;;;;;;;10.54;78.65;99357.69;4276720;82;28563;-81
2022/12/05 18:40:07;;;;;;;59.42;29.27;;;;;;;10.54;79.86;99354.45;4286034;81;28564;-81
2022/12/05 18:46:08;;;;;;;60.83;30.20;;;;;;;10.54;79.41;99352.31;4266631;82;28781;-79
2022/12/05 18:52:09;;;;;;;62.45;28.70;;;;;;;10.78;77.91;99352.45;4232516;82;28530;-80
2022/12/05 18:58:11;;;;;;;63.35;30.32;;;;;;;10.55;79.47;99359.33;4267274;82;28498;-78
2022/12/05 19:04:16;;;;;;;59.33;29.40;;;;;;;10.71;79.26;99360.60;4279700;82;28526;-79
2022/12/05 19:10:17;;;;;;;61.75;30.02;;;;;;;10.69;79.23;99358.67;4240569;83;28555;-79
2022/12/05 19:16:19;;;;;;;58.65;29.57;;;;;;;10.74;79.87;99360.14;4282867;81;28529;-81
2022/12/05 19:22:21;;;;;;;65.22;30.77;;;;;;;10.72;79.74;99354.17;4280033;82;28556;-80
2022/12/05 19:28:22;;;;;;;58.75;30.52;;;;;;;10.70;80.15;99363.00;4215534;83;28568;-77
2022/12/05 19:34:23;;;;;;;66.53;32.55;;;;;;;10.75;80.25;99360.44;4228812;83;28529;-79
2022/12/05 19:40:25;;;;;;;69.22;33.30;;;;;;;10.63;80.40;99368.95;4232353;82;28508;-79
2022/12/05 19:46:28;;;;;;;67.55;33.50;;;;;;;10.69;80.50;99354.63;4239419;83;28524;-79
2022/12/05 19:52:30;;;;;;;66.07;33.13;;;;;;;10.51;81.67;99358.11;4229266;83;28605;-79
2022/12/05 19:58:34;;;;;;;68.70;34.13;;;;;;;10.53;81.75;99352.02;4232296;83;28558;-79
2022/12/05 20:04:36;;;;;;;77.00;36.15;;;;;;;10.63;81.59;99353.66;4215573;83;28483;-78
2022/12/05 20:10:37;;;;;;;65.22;34.00;;;;;;;10.92;80.55;99366.03;4239241;83;28558;-79
2022/12/05 20:16:39;;;;;;;68.45;33.02;;;;;;;10.72;81.14;99360.90;4228840;81;28527;-80
2022/12/05 20:22:41;;;;;;;70.60;35.35;;;;;;;10.80;80.72;99347.16;4208094;82;28587;-79
2022/12/05 20:28:45;;;;;;;76.95;37.60;;;;;;;10.74;80.35;99344.84;4177459;84;28511;-86
2022/12/05 20:34:46;;;;;;;72.30;36.00;;;;;;;10.84;80.46;99342.96;4341247;81;28656;-85
2022/12/05 20:40:49;;;;;;;68.60;35.17;;;;;;;10.70;80.49;99344.98;4355441;81;28595;-83
2022/12/05 20:46:51;;;;;;;73.95;35.70;;;;;;;10.72;80.57;99356.86;4340333;81;28978;-82
2022/12/05 20:52:53;;;;;;;80.75;40.17;;;;;;;10.51;82.07;99352.73;4290544;81;28506;-85
2022/12/05 20:58:58;;;;;;;78.75;38.17;;;;;;;10.62;82.22;99344.47;4354595;81;28518;-84
2022/12/05 21:05:01;;;;;;;71.10;36.98;;;;;;;10.65;82.25;99342.66;4334400;81;28557;-82
2022/12/05 21:11:03;;;;;;;82.62;40.38;;;;;;;10.53;82.70;99332.66;4346357;81;28587;-84
2022/12/05 21:17:04;;;;;;;78.97;40.60;;;;;;;10.62;82.65;99335.89;4338203;81;28517;-86
2022/12/05 21:23:06;;;;;;;74.27;37.30;;;;;;;10.81;82.20;99339.38;4353329;80;28490;-87
2022/12/05 21:29:12;;;;;;;;;;;;;;;10.76;82.24;99329.00;4306541;82;28517;-88
2022/12/05 21:35:14;;;;;;;76.33;37.42;;;;;;;10.57;82.60;99331.19;4296287;81;20238;-85
2022/12/05 21:41:16;;;;;;;76.95;38.25;;;;;;;10.57;83.31;99323.63;4330906;81;28487;-86
2022/12/05 21:47:18;;;;;;;79.35;38.83;;;;;;;10.60;82.95;99326.69;4323015;81;28961;-87
2022/12/05 21:53:21;;;;;;;77.50;39.10;;;;;;;10.68;82.74;99338.20;4310529;81;28501;-87
2022/12/05 21:59:24;;;;;;;81.17;41.30;;;;;;;10.70;82.35;99324.81;4313988;81;28525;-85
2022/12/05 22:05:25;;;;;;;85.38;41.13;;;;;;;10.52;83.52;99321.61;4327307;81;28524;-87
2022/12/05 22:11:27;;;;;;;79.07;39.65;;;;;;;10.63;83.21;99309.30;4299710;81;28651;-86
2022/12/05 22:17:30;;;;;;;77.95;39.75;;;;;;;10.59;82.64;99295.98;4318423;81;28496;-87
2022/12/05 22:23:33;;;;;;;72.53;37.30;;;;;;;10.53;83.19;99296.91;4298718;82;28515;-86
2022/12/05 22:29:34;;;;;;;77.53;38.67;;;;;;;10.47;82.94;99286.52;4302741;81;28560;-85
2022/12/05 22:35:36;;;;;;;75.03;38.85;;;;;;;10.55;82.71;99294.27;4347751;81;28537;-85
2022/12/05 22:41:37;;;;;;;86.72;41.73;;;;;;;10.64;82.28;99299.34;4318175;81;28788;-84
2022/12/05 22:47:39;;;;;;;81.32;41.50;;;;;;;10.94;80.53;99288.64;4319710;81;28513;-85
2022/12/05 22:53:41;;;;;;;83.47;42.55;;;;;;;10.82;80.26;99279.16;4317134;81;28501;-86
2022/12/05 22:59:42;;;;;;;86.37;43.02;;;;;;;10.90;80.96;99285.28;4317669;81;28481;-85
2022/12/05 23:05:44;;;;;;;80.55;39.88;;;;;;;10.84;81.10;99273.03;4318017;81;28533;-86
2022/12/05 23:11:50;;;;;;;86.45;44.65;;;;;;;10.68;82.33;99261.02;4318127;81;28537;-85
2022/12/05 23:17:51;;;;;;;84.80;42.85;;;;;;;10.81;82.43;99256.01;4318837;81;28583;-84
2022/12/05 23:23:56;;;;;;;86.57;43.35;;;;;;;10.78;82.69;99252.95;4356172;80;28575;-85
2022/12/05 23:29:57;;;;;;;81.75;41.80;;;;;;;11.01;81.97;99260.30;4300157;81;28489;-85
2022/12/05 23:35:59;;;;;;;84.10;43.85;;;;;;;11.05;81.72;99249.36;4316084;81;28556;-84
2022/12/05 23:42:00;;;;;;;85.15;43.98;;;;;;;10.90;82.03;99253.01;4318328;81;28544;-84
2022/12/05 23:48:01;;;;;;;86.47;44.08;;;;;;;10.90;82.82;99245.74;4318063;81;28501;-83
2022/12/05 23:54:03;;;;;;;91.12;44.18;;;;;;;11.21;80.72;99247.89;4318428;81;28588;-84
